Time;durP1;ratioP1;P1;durP2;ratioP2;P2;SDS_P1;SDS_P2;PMS_P1;PMS_P2;Temp;Humidity;BMP_temperature;BMP_pressure;BME280_temperature;BME280_humidity;BME280_pressure;Samples;Min_cycle;Max_cycle;Signal;HPM_P1;HPM_P2
2023/08/12 00:00:59;;;;;;;25.80;10.93;;;19.50;99.90;;;;;;5053857;28;20044;-74
2023/08/12 00:03:25;;;;;;;27.40;10.95;;;19.40;99.90;;;;;;5054599;28;20045;-74
2023/08/12 00:05:52;;;;;;;32.77;11.60;;;19.40;99.90;;;;;;5055006;28;20041;-74
2023/08/12 00:08:17;;;;;;;;;;;19.40;99.90;;;;;;5055397;28;20297;-74
2023/08/12 00:10:43;;;;;;;26.50;10.67;;;19.40;99.90;;;;;;5053671;28;19920;-73
2023/08/12 00:13:09;;;;;;;26.10;10.97;;;19.40;99.90;;;;;;5054019;28;20440;-74
2023/08/12 00:15:35;;;;;;;30.60;11.23;;;19.40;99.90;;;;;;5054605;28;20436;-74
2023/08/12 00:18:04;;;;;;;30.53;12.03;;;19.40;99.90;;;;;;5055041;28;20072;-75
2023/08/12 00:20:29;;;;;;;29.67;12.38;;;19.40;99.90;;;;;;5054543;28;20132;-74
2023/08/12 00:22:55;;;;;;;30.83;12.83;;;19.40;99.90;;;;;;5053662;28;20095;-74
2023/08/12 00:25:21;;;;;;;28.63;11.40;;;19.40;99.90;;;;;;5054494;28;20052;-75
2023/08/12 00:27:46;;;;;;;36.47;12.17;;;19.40;99.90;;;;;;5053468;28;20040;-74
2023/08/12 00:30:12;;;;;;;27.10;11.03;;;19.40;99.90;;;;;;5054629;28;20107;-74
2023/08/12 00:32:38;;;;;;;28.60;11.50;;;19.40;99.90;;;;;;5054870;28;20127;-74
2023/08/12 00:35:05;;;;;;;29.67;12.63;;;19.40;99.90;;;;;;5054025;28;20504;-74
2023/08/12 00:37:30;;;;;;;29.17;13.02;;;19.40;99.90;;;;;;5054187;28;20099;-73
2023/08/12 00:39:56;;;;;;;25.47;11.70;;;19.30;99.90;;;;;;5054230;28;20440;-74
2023/08/12 00:42:22;;;;;;;28.77;12.13;;;19.30;99.90;;;;;;5053747;28;20098;-74
2023/08/12 00:44:47;;;;;;;34.00;12.17;;;19.30;99.90;;;;;;5052956;28;20048;-74
2023/08/12 00:47:14;;;;;;;31.83;12.53;;;19.30;99.90;;;;;;5054057;28;20057;-74
2023/08/12 00:49:41;;;;;;;31.38;12.25;;;19.30;99.90;;;;;;5069549;28;20049;-75
2023/08/12 00:52:06;;;;;;;;;;;19.30;99.90;;;;;;5054377;28;20045;-74
2023/08/12 00:54:32;;;;;;;36.07;12.80;;;19.30;99.90;;;;;;5054549;28;19928;-74
2023/08/12 00:56:58;;;;;;;31.50;12.32;;;19.30;99.90;;;;;;5053901;28;20052;-75
2023/08/12 00:59:25;;;;;;;29.88;13.02;;;19.30;99.90;;;;;;5053899;28;20144;-74
2023/08/12 01:01:51;;;;;;;32.22;12.35;;;19.20;99.90;;;;;;5052551;28;20045;-74
2023/08/12 01:04:16;;;;;;;30.63;13.43;;;19.20;99.90;;;;;;5086370;28;20044;-74
2023/08/12 01:06:42;;;;;;;28.43;12.47;;;19.10;99.90;;;;;;5053673;28;20045;-74
2023/08/12 01:09:08;;;;;;;33.33;13.03;;;19.20;99.90;;;;;;5052498;28;20116;-74
2023/08/12 01:11:43;;;;;;;33.58;13.15;;;19.10;99.90;;;;;;5053718;28;20103;-74
2023/08/12 01:14:08;;;;;;;33.20;12.63;;;19.10;99.90;;;;;;5052471;28;20049;-74
2023/08/12 01:16:39;;;;;;;32.20;14.17;;;19.20;99.90;;;;;;5053006;28;20047;-74
2023/08/12 01:19:09;;;;;;;32.35;13.70;;;19.20;99.90;;;;;;5052300;28;20041;-76
2023/08/12 01:21:40;;;;;;;27.98;13.13;;;19.20;99.90;;;;;;5052897;28;20041;-74
2023/08/12 01:24:07;;;;;;;38.50;13.75;;;19.20;99.90;;;;;;5035969;28;20489;-75
2023/08/12 01:26:32;;;;;;;34.95;14.73;;;19.10;99.90;;;;;;5086894;28;20075;-74
2023/08/12 01:28:58;;;;;;;32.67;12.83;;;19.10;99.90;;;;;;5053939;28;20053;-74
2023/08/12 01:31:34;;;;;;;33.77;13.83;;;19.10;99.90;;;;;;5053724;28;20425;-75
2023/08/12 01:34:16;;;;;;;34.03;13.95;;;19.10;99.90;;;;;;5053345;28;20045;-75
2023/08/12 01:36:50;;;;;;;35.65;14.20;;;19.10;99.90;;;;;;5053519;28;20071;-74
2023/08/12 01:39:19;;;;;;;39.15;14.98;;;19.00;99.90;;;;;;5052213;28;20409;-75
2023/08/12 01:41:45;;;;;;;38.80;15.10;;;19.00;99.90;;;;;;5053295;28;20041;-74
2023/08/12 01:44:11;;;;;;;36.45;14.50;;;19.00;99.90;;;;;;5052824;28;20056;-75
2023/08/12 01:46:37;;;;;;;31.90;14.83;;;18.90;99.90;;;;;;5053410;28;20053;-75
2023/08/12 01:49:03;;;;;;;34.70;14.53;;;18.90;99.90;;;;;;5053221;28;20516;-74
2023/08/12 01:51:29;;;;;;;40.13;15.32;;;18.90;99.90;;;;;;5053171;28;20052;-75
2023/08/12 01:53:55;;;;;;;37.03;15.37;;;18.80;99.90;;;;;;5053688;28;20136;-74
2023/08/12 01:56:21;;;;;;;38.37;15.70;;;18.80;99.90;;;;;;5051960;28;20041;-74
2023/08/12 01:58:46;;;;;;;36.10;15.13;;;18.80;99.90;;;;;;5052005;28;20041;-74
2023/08/12 02:01:12;;;;;;;34.23;15.80;;;18.80;99.90;;;;;;5053199;28;20102;-74
2023/08/12 02:03:38;;;;;;;32.23;15.30;;;18.80;99.90;;;;;;5069015;28;20092;-74
2023/08/12 02:06:04;;;;;;;37.58;16.05;;;18.80;99.90;;;;;;5051781;28;20040;-73
2023/08/12 02:08:30;;;;;;;36.23;15.63;;;18.70;99.90;;;;;;5051877;28;20495;-75
2023/08/12 02:10:55;;;;;;;39.03;16.20;;;18.70;99.90;;;;;;5035233;28;20132;-75
2023/08/12 02:13:21;;;;;;;40.50;16.03;;;18.70;99.90;;;;;;5052775;28;20055;-73
2023/08/12 02:15:47;;;;;;;38.67;16.63;;;18.70;99.90;;;;;;5052359;28;20048;-72
2023/08/12 02:18:13;;;;;;;43.93;16.93;;;18.70;99.90;;;;;;5051867;28;20049;-74
2023/08/12 02:20:41;;;;;;;41.60;17.33;;;18.70;99.90;;;;;;5054051;28;20052;-74
2023/08/12 02:23:06;;;;;;;37.65;17.23;;;18.70;99.90;;;;;;5052909;28;20052;-74
2023/08/12 02:25:32;;;;;;;36.00;16.97;;;18.70;99.90;;;;;;5086161;28;20450;-72
2023/08/12 02:27:58;;;;;;;38.33;17.60;;;18.70;99.90;;;;;;5054555;28;20052;-74
2023/08/12 02:30:24;;;;;;;37.47;16.07;;;18.70;99.90;;;;;;5055705;28;20045;-74
2023/08/12 02:32:49;;;;;;;36.40;16.50;;;18.80;99.90;;;;;;5056559;28;20051;-72
2023/08/12 02:35:18;;;;;;;37.73;16.90;;;18.80;99.90;;;;;;5055406;28;20120;-74
2023/08/12 02:37:43;;;;;;;36.78;16.27;;;18.80;99.90;;;;;;5055226;28;20045;-73
2023/08/12 02:40:10;;;;;;;37.23;16.70;;;18.80;99.90;;;;;;5056667;28;20141;-74
2023/08/12 02:42:36;;;;;;;34.78;16.90;;;18.70;99.90;;;;;;5055504;28;20410;-74
2023/08/12 02:45:02;;;;;;;39.45;15.88;;;18.70;99.90;;;;;;5056894;28;20055;-74
2023/08/12 02:47:28;;;;;;;37.10;16.00;;;18.70;99.90;;;;;;5055777;28;20065;-75
2023/08/12 02:49:53;;;;;;;39.10;16.50;;;18.70;99.90;;;;;;5057156;28;20040;-73
2023/08/12 02:52:19;;;;;;;42.93;16.87;;;18.70;99.90;;;;;;5056668;28;20477;-75
2023/08/12 02:54:45;;;;;;;39.40;17.30;;;18.70;99.90;;;;;;5056766;28;20114;-74
2023/08/12 02:57:11;;;;;;;36.30;16.20;;;18.70;99.90;;;;;;5056150;28;20435;-74
2023/08/12 02:59:36;;;;;;;39.17;17.07;;;18.70;99.90;;;;;;5054982;28;20044;-73
2023/08/12 03:02:02;;;;;;;38.17;17.33;;;18.70;99.90;;;;;;5056531;28;20071;-73
2023/08/12 03:04:29;;;;;;;36.45;16.45;;;18.60;99.90;;;;;;5054812;28;20049;-74
2023/08/12 03:06:55;;;;;;;34.20;16.20;;;18.60;99.90;;;;;;5054956;28;20049;-75
2023/08/12 03:09:21;;;;;;;34.00;15.47;;;18.60;99.90;;;;;;5056606;28;20055;-74
2023/08/12 03:11:47;;;;;;;37.20;16.23;;;18.70;99.90;;;;;;5088686;28;20088;-74
2023/08/12 03:14:12;;;;;;;39.07;16.77;;;18.70;99.90;;;;;;5055760;28;20763;-74
2023/08/12 03:16:38;;;;;;;38.43;18.57;;;18.70;99.90;;;;;;5055781;28;20444;-74
2023/08/12 03:19:04;;;;;;;41.67;17.17;;;18.70;99.90;;;;;;5054543;28;20119;-75
2023/08/12 03:21:30;;;;;;;38.83;18.37;;;18.80;99.90;;;;;;5055820;28;20044;-75
2023/08/12 03:23:56;;;;;;;38.90;17.30;;;18.80;99.90;;;;;;5055619;28;20056;-73
2023/08/12 03:26:22;;;;;;;38.45;17.60;;;18.80;99.90;;;;;;5054692;28;20489;-75
2023/08/12 03:28:47;;;;;;;37.50;18.07;;;18.90;99.90;;;;;;5055591;28;20049;-75
2023/08/12 03:31:13;;;;;;;41.63;18.77;;;18.90;99.90;;;;;;5055556;28;20044;-74
2023/08/12 03:33:39;;;;;;;40.37;17.73;;;18.90;99.90;;;;;;5054297;28;20049;-74
2023/08/12 03:36:05;;;;;;;43.93;18.87;;;18.90;99.90;;;;;;5055311;28;20118;-74
2023/08/12 03:38:30;;;;;;;38.53;18.27;;;19.00;99.90;;;;;;5055036;28;20085;-73
2023/08/12 03:40:56;;;;;;;41.07;18.50;;;19.00;99.90;;;;;;5055346;28;20052;-74
2023/08/12 03:43:22;;;;;;;36.17;18.07;;;19.00;99.90;;;;;;5055922;28;20060;-74
2023/08/12 03:45:47;;;;;;;44.60;19.17;;;19.00;99.90;;;;;;5054598;28;20515;-74
2023/08/12 03:48:14;;;;;;;;;;;19.00;99.90;;;;;;5055247;28;20053;-74
2023/08/12 03:50:42;;;;;;;41.53;18.73;;;19.00;99.90;;;;;;5055238;28;19921;-74
2023/08/12 03:53:08;;;;;;;41.65;19.30;;;19.10;99.90;;;;;;5055293;28;20068;-73
2023/08/12 03:55:34;;;;;;;;;;;19.10;99.90;;;;;;5054435;28;20049;-75
2023/08/12 03:58:00;;;;;;;42.43;17.83;;;19.10;99.90;;;;;;5087981;28;19927;-72
2023/08/12 04:00:26;;;;;;;46.70;19.10;;;19.10;99.90;;;;;;5055198;28;20041;-74
2023/08/12 04:02:52;;;;;;;47.70;18.80;;;19.10;99.90;;;;;;5056129;28;20052;-75
2023/08/12 04:05:17;;;;;;;43.73;19.57;;;19.10;99.90;;;;;;5055636;28;20045;-74
2023/08/12 04:07:43;;;;;;;47.10;20.37;;;19.10;99.90;;;;;;5056430;28;20033;-75
2023/08/12 04:10:09;;;;;;;46.60;20.57;;;19.10;99.90;;;;;;5038831;28;20048;-75
2023/08/12 04:12:35;;;;;;;47.50;21.48;;;19.10;99.90;;;;;;5055724;28;20178;-74
2023/08/12 04:15:04;;;;;;;47.43;20.13;;;19.10;99.90;;;;;;5055590;28;20131;-74
2023/08/12 04:17:30;;;;;;;53.42;21.45;;;19.00;99.90;;;;;;5054735;28;20067;-75
2023/08/12 04:19:56;;;;;;;45.83;20.60;;;19.00;99.90;;;;;;5054044;28;20473;-74
2023/08/12 04:22:22;;;;;;;50.30;21.77;;;19.10;99.90;;;;;;5055205;28;20116;-74
2023/08/12 04:24:47;;;;;;;45.10;22.60;;;19.00;99.90;;;;;;5055317;28;20045;-75
2023/08/12 04:27:13;;;;;;;48.83;22.57;;;19.00;99.90;;;;;;5087648;28;20512;-75
2023/08/12 04:29:39;;;;;;;49.27;21.90;;;19.00;99.90;;;;;;5053932;28;20049;-75
2023/08/12 04:32:05;;;;;;;54.90;22.77;;;19.00;99.90;;;;;;5055038;28;20501;-74
2023/08/12 04:34:30;;;;;;;54.55;23.40;;;19.00;99.90;;;;;;5070530;28;20053;-75
2023/08/12 04:36:56;;;;;;;53.13;24.33;;;19.00;99.90;;;;;;5054754;28;20067;-76
2023/08/12 04:39:22;;;;;;;47.23;22.63;;;19.00;99.90;;;;;;5054071;28;20552;-74
2023/08/12 04:41:48;;;;;;;51.67;24.00;;;19.00;99.90;;;;;;5053904;28;20045;-74
2023/08/12 04:44:14;;;;;;;54.53;24.23;;;18.90;99.90;;;;;;5053506;28;20131;-74
2023/08/12 04:46:39;;;;;;;55.23;24.13;;;18.90;99.90;;;;;;5056624;28;20061;-74
2023/08/12 04:49:05;;;;;;;51.43;23.27;;;18.90;99.90;;;;;;5058919;28;20049;-75
2023/08/12 04:51:31;;;;;;;56.30;23.57;;;18.90;99.90;;;;;;5057752;28;20084;-73
2023/08/12 04:53:57;;;;;;;59.07;24.57;;;19.00;99.90;;;;;;5058503;28;20488;-75
2023/08/12 04:56:24;;;;;;;53.57;24.67;;;18.90;99.90;;;;;;5057532;28;20551;-75
2023/08/12 04:58:50;;;;;;;58.50;26.30;;;18.90;99.90;;;;;;5055508;28;20111;-74
2023/08/12 05:01:15;;;;;;;63.20;25.77;;;18.90;99.90;;;;;;5038366;28;20056;-73
2023/08/12 05:03:41;;;;;;;58.57;25.97;;;18.90;99.90;;;;;;5088091;28;20126;-74
2023/08/12 05:06:07;;;;;;;53.80;23.93;;;18.90;99.90;;;;;;5053981;28;20047;-74
2023/08/12 05:08:33;;;;;;;64.47;25.27;;;18.90;99.90;;;;;;5053485;28;20041;-75
2023/08/12 05:10:58;;;;;;;68.70;26.87;;;18.90;99.90;;;;;;5054384;28;20053;-75
2023/08/12 05:13:24;;;;;;;57.60;26.37;;;19.00;99.90;;;;;;5053678;28;20148;-75
2023/08/12 05:15:50;;;;;;;59.90;25.73;;;19.00;99.90;;;;;;5054352;28;20052;-75
2023/08/12 05:18:16;;;;;;;61.90;26.37;;;19.10;99.90;;;;;;5053549;28;20040;-74
2023/08/12 05:20:42;;;;;;;65.23;25.50;;;19.20;99.90;;;;;;5053371;28;20393;-74
2023/08/12 05:23:08;;;;;;;57.10;26.92;;;19.20;99.90;;;;;;5053601;28;20085;-74
2023/08/12 05:25:34;;;;;;;63.50;25.60;;;19.30;99.90;;;;;;5053488;28;20037;-75
2023/08/12 05:28:00;;;;;;;59.60;25.73;;;19.40;99.90;;;;;;5052933;28;20624;-75
2023/08/12 05:30:25;;;;;;;61.73;26.13;;;19.40;99.90;;;;;;5054322;28;20052;-75
2023/08/12 05:32:51;;;;;;;63.40;26.90;;;19.50;99.90;;;;;;5052307;28;20041;-74
2023/08/12 05:35:17;;;;;;;53.37;24.83;;;19.60;99.90;;;;;;5053646;28;20047;-74
2023/08/12 05:37:43;;;;;;;61.93;27.03;;;19.70;99.90;;;;;;5053281;28;20538;-75
2023/08/12 05:40:09;;;;;;;59.27;26.87;;;19.80;99.90;;;;;;5053374;28;20052;-74
2023/08/12 05:42:36;;;;;;;58.08;26.35;;;19.80;99.90;;;;;;5052872;28;20122;-74
2023/08/12 05:45:02;;;;;;;62.20;26.95;;;19.90;99.90;;;;;;5052387;28;20133;-73
2023/08/12 05:47:28;;;;;;;63.83;27.83;;;20.00;99.90;;;;;;5053020;28;20083;-73
2023/08/12 05:49:54;;;;;;;56.40;27.63;;;20.00;99.90;;;;;;5053391;28;20485;-75
2023/08/12 05:52:19;;;;;;;62.83;28.37;;;20.10;99.90;;;;;;5052498;28;20436;-74
2023/08/12 05:54:45;;;;;;;64.83;27.77;;;20.30;99.90;;;;;;5054132;28;20485;-74
2023/08/12 05:57:10;;;;;;;69.83;27.30;;;20.50;99.90;;;;;;5051784;28;20045;-74
2023/08/12 05:59:36;;;;;;;63.83;27.67;;;20.70;99.90;;;;;;5053520;28;20105;-75
2023/08/12 06:02:02;;;;;;;58.63;27.57;;;20.90;99.90;;;;;;5070977;28;20049;-73
2023/08/12 06:04:27;;;;;;;60.70;27.60;;;21.00;99.90;;;;;;5057166;28;20045;-76
2023/08/12 06:06:53;;;;;;;59.10;26.83;;;21.00;99.90;;;;;;5057740;28;20381;-75
2023/08/12 06:09:19;;;;;;;69.83;27.80;;;21.10;99.90;;;;;;5057596;28;20048;-75
2023/08/12 06:11:44;;;;;;;60.90;27.27;;;21.00;99.90;;;;;;5057658;28;20461;-74
2023/08/12 06:14:10;;;;;;;65.97;26.93;;;21.00;99.90;;;;;;5057099;28;20053;-75
2023/08/12 06:16:36;;;;;;;65.33;27.03;;;20.90;99.90;;;;;;5057030;28;20500;-74
2023/08/12 06:19:02;;;;;;;60.40;27.13;;;20.90;99.90;;;;;;5055809;28;20103;-75
2023/08/12 06:21:27;;;;;;;65.50;28.40;;;20.80;99.90;;;;;;5057440;28;20053;-75
2023/08/12 06:23:53;;;;;;;62.07;27.70;;;20.80;99.90;;;;;;5056654;28;20103;-74
2023/08/12 06:26:19;;;;;;;67.77;27.77;;;20.80;99.90;;;;;;5056864;28;20088;-73
2023/08/12 06:28:44;;;;;;;64.77;27.80;;;20.80;99.90;;;;;;5057592;28;20056;-73
2023/08/12 06:31:10;;;;;;;61.10;26.80;;;20.80;99.90;;;;;;5089302;28;20481;-73
2023/08/12 06:33:36;;;;;;;60.87;27.73;;;20.80;99.90;;;;;;5056663;28;20051;-74
2023/08/12 06:36:02;;;;;;;62.77;26.40;;;20.90;99.90;;;;;;5055148;28;20123;-74
2023/08/12 06:38:27;;;;;;;60.55;27.38;;;20.90;99.90;;;;;;5056474;28;20045;-74
2023/08/12 06:40:54;;;;;;;59.53;27.43;;;20.90;99.90;;;;;;5055311;28;20045;-74
2023/08/12 06:43:20;;;;;;;63.85;28.27;;;20.90;99.90;;;;;;5056508;28;20051;-74
2023/08/12 06:45:46;;;;;;;64.07;28.03;;;20.90;99.90;;;;;;5055091;28;20044;-73
2023/08/12 06:48:12;;;;;;;61.20;26.57;;;20.90;99.90;;;;;;5056180;28;20060;-74
2023/08/12 06:50:37;;;;;;;55.13;26.57;;;20.80;99.90;;;;;;5056046;28;20416;-74
2023/08/12 06:53:03;;;;;;;56.53;26.13;;;20.80;99.90;;;;;;5055259;28;20118;-74
2023/08/12 06:55:29;;;;;;;56.58;26.00;;;20.80;99.90;;;;;;5056249;28;20102;-74
2023/08/12 06:57:55;;;;;;;57.77;26.80;;;20.80;99.90;;;;;;5056210;28;20037;-74
2023/08/12 07:00:21;;;;;;;61.47;26.83;;;20.80;99.90;;;;;;5088770;28;20432;-73
2023/08/12 07:02:46;;;;;;;61.40;27.07;;;20.80;99.90;;;;;;5054856;28;20056;-75
2023/08/12 07:05:12;;;;;;;57.87;27.07;;;20.80;99.90;;;;;;5054912;28;20049;-74
2023/08/12 07:07:38;;;;;;;59.37;26.63;;;20.70;99.90;;;;;;5056055;28;20111;-74
2023/08/12 07:10:05;;;;;;;62.73;26.90;;;20.70;99.90;;;;;;5038571;28;20382;-74
2023/08/12 07:12:30;;;;;;;57.13;26.88;;;20.60;99.90;;;;;;5056102;28;20052;-74
2023/08/12 07:14:56;;;;;;;59.50;27.20;;;20.60;99.90;;;;;;5055439;28;20048;-73
2023/08/12 07:17:22;;;;;;;52.50;25.77;;;20.60;99.90;;;;;;5055923;28;20045;-74
2023/08/12 07:19:48;;;;;;;54.00;25.53;;;20.60;99.90;;;;;;5055915;28;20095;-74
2023/08/12 07:22:14;;;;;;;57.38;26.83;;;20.50;99.90;;;;;;5055826;28;20076;-74
2023/08/12 07:24:39;;;;;;;55.43;25.50;;;20.50;99.90;;;;;;5055795;28;20087;-73
2023/08/12 07:27:05;;;;;;;57.97;26.20;;;20.50;99.90;;;;;;5038146;28;20488;-75
2023/08/12 07:29:31;;;;;;;53.60;24.43;;;20.50;99.90;;;;;;5055887;28;20045;-73
2023/08/12 07:31:56;;;;;;;55.23;25.43;;;20.50;99.90;;;;;;5054387;28;20111;-76
2023/08/12 07:34:22;;;;;;;60.37;25.47;;;20.50;99.90;;;;;;5055266;28;20044;-73
2023/08/12 07:36:48;;;;;;;55.53;25.43;;;20.50;99.90;;;;;;5055423;28;20076;-75
2023/08/12 07:39:14;;;;;;;55.30;24.27;;;20.50;99.90;;;;;;5054020;28;20508;-74
2023/08/12 07:41:39;;;;;;;56.83;24.87;;;20.50;99.90;;;;;;5054094;28;20056;-75
2023/08/12 07:44:05;;;;;;;55.97;24.80;;;20.50;99.90;;;;;;5055392;28;20048;-76
2023/08/12 07:46:31;;;;;;;53.97;24.00;;;20.50;99.90;;;;;;5055234;28;20481;-75
2023/08/12 07:48:57;;;;;;;57.20;24.47;;;20.50;99.90;;;;;;5054668;28;20473;-76
2023/08/12 07:51:23;;;;;;;54.45;24.52;;;20.60;99.90;;;;;;5055224;28;20049;-75
2023/08/12 07:53:48;;;;;;;52.67;24.37;;;20.60;99.90;;;;;;5055725;28;20359;-76
2023/08/12 07:56:14;;;;;;;55.67;24.83;;;20.60;99.90;;;;;;5055916;28;20041;-78
2023/08/12 07:58:40;;;;;;;54.47;23.03;;;20.50;99.90;;;;;;5055106;28;20044;-76
2023/08/12 08:01:07;;;;;;;48.03;23.27;;;20.50;99.90;;;;;;5055398;28;20053;-76
2023/08/12 08:03:33;;;;;;;55.05;24.92;;;20.40;99.90;;;;;;5053950;28;20051;-76
2023/08/12 08:05:59;;;;;;;52.97;25.50;;;20.40;99.90;;;;;;5055150;28;20056;-81
2023/08/12 08:08:24;;;;;;;55.80;25.10;;;20.40;99.90;;;;;;5058426;28;20132;-81
2023/08/12 08:10:50;;;;;;;62.90;24.53;;;20.30;99.90;;;;;;5061261;28;20080;-83
2023/08/12 08:13:16;;;;;;;46.50;21.27;;;20.30;99.90;;;;;;5056080;28;20527;-82
2023/08/12 08:15:41;;;;;;;29.83;14.27;;;20.20;99.90;;;;;;5056714;28;20100;-86
2023/08/12 08:18:07;;;;;;;31.30;13.50;;;20.20;99.90;;;;;;5058702;28;20048;-84
2023/08/12 08:20:33;;;;;;;33.67;12.67;;;20.10;99.90;;;;;;5060833;28;20045;-84
2023/08/12 08:22:59;;;;;;;28.10;13.70;;;20.00;99.90;;;;;;5040917;28;20358;-83
2023/08/12 08:25:25;;;;;;;32.63;15.02;;;20.00;99.90;;;;;;5060871;28;20315;-82
2023/08/12 08:27:51;;;;;;;28.97;14.13;;;20.00;99.90;;;;;;5040390;28;20068;-83
2023/08/12 08:30:16;;;;;;;26.57;11.27;;;19.90;99.90;;;;;;5056592;28;20099;-85
2023/08/12 08:32:42;;;;;;;25.80;11.00;;;19.90;99.90;;;;;;5089894;28;20041;-85
2023/08/12 08:35:08;;;;;;;28.23;10.37;;;19.90;99.90;;;;;;5037745;28;20053;-78
2023/08/12 08:37:34;;;;;;;23.00;10.23;;;19.80;99.90;;;;;;5053379;28;20066;-79
2023/08/12 08:39:59;;;;;;;22.60;10.27;;;19.60;99.90;;;;;;5054699;28;20503;-82
2023/08/12 08:42:25;;;;;;;22.83;10.20;;;19.60;99.90;;;;;;5053816;28;20040;-81
2023/08/12 08:44:53;;;;;;;28.30;12.07;;;19.60;99.90;;;;;;5054434;28;20080;-81
2023/08/12 08:47:26;;;;;;;24.60;11.02;;;19.60;99.90;;;;;;5053976;28;20091;-80
2023/08/12 08:49:55;;;;;;;25.05;12.02;;;19.60;99.90;;;;;;5036434;28;20118;-82
2023/08/12 08:52:21;;;;;;;35.92;14.02;;;19.60;99.90;;;;;;5054661;28;20045;-79
2023/08/12 08:54:47;;;;;;;32.63;13.98;;;19.60;99.90;;;;;;5037229;28;20060;-80
2023/08/12 08:57:13;;;;;;;29.03;13.43;;;19.60;99.90;;;;;;5054260;28;20366;-75
2023/08/12 08:59:39;;;;;;;34.72;15.02;;;19.50;99.90;;;;;;5054425;28;20043;-74
2023/08/12 09:02:07;;;;;;;31.40;15.43;;;19.50;99.90;;;;;;5053934;28;20467;-76
2023/08/12 09:04:34;;;;;;;36.28;15.70;;;19.50;99.90;;;;;;5036523;28;20053;-76
2023/08/12 09:07:00;;;;;;;32.58;15.75;;;19.50;99.90;;;;;;5086484;28;20061;-78
2023/08/12 09:09:27;;;;;;;38.63;16.90;;;19.60;99.90;;;;;;5036428;28;20053;-75
2023/08/12 09:11:55;;;;;;;35.97;17.60;;;19.60;99.90;;;;;;5053051;28;20048;-74
2023/08/12 09:14:21;;;;;;;42.65;18.73;;;19.60;99.90;;;;;;5053690;28;20045;-75
2023/08/12 09:16:47;;;;;;;33.13;16.75;;;19.60;99.90;;;;;;5052997;28;20049;-74
2023/08/12 09:19:13;;;;;;;37.17;17.83;;;19.60;99.90;;;;;;5053890;28;20107;-76
2023/08/12 09:21:38;;;;;;;35.60;16.83;;;19.60;99.90;;;;;;5052736;28;20550;-78
2023/08/12 09:24:04;;;;;;;30.20;15.23;;;19.50;99.90;;;;;;5053245;28;20354;-74
2023/08/12 09:26:30;;;;;;;33.63;16.20;;;19.50;99.90;;;;;;5053384;28;20476;-75
2023/08/12 09:28:58;;;;;;;40.07;16.17;;;19.60;99.90;;;;;;5051961;28;20052;-75
2023/08/12 09:31:28;;;;;;;34.45;16.10;;;19.60;99.90;;;;;;5052351;28;20049;-75
2023/08/12 09:33:58;;;;;;;33.00;15.00;;;19.60;99.90;;;;;;5053910;28;20056;-75
2023/08/12 09:36:27;;;;;;;31.75;13.55;;;19.60;99.90;;;;;;5053332;28;20435;-75
2023/08/12 09:38:52;;;;;;;29.80;13.40;;;19.70;99.90;;;;;;5053315;28;20037;-74
2023/08/12 09:41:18;;;;;;;32.90;13.33;;;19.60;99.90;;;;;;5036129;28;20059;-74
2023/08/12 09:43:45;;;;;;;26.08;11.43;;;19.60;99.90;;;;;;5053553;28;20531;-75
2023/08/12 09:46:12;;;;;;;19.95;10.13;;;19.60;99.90;;;;;;5053195;28;20068;-76
2023/08/12 09:48:38;;;;;;;24.48;11.15;;;19.60;99.90;;;;;;5054233;28;20049;-74
2023/08/12 09:51:05;;;;;;;19.83;10.53;;;19.60;99.90;;;;;;5052302;28;20572;-74
2023/08/12 09:53:33;;;;;;;21.80;10.73;;;19.60;99.90;;;;;;5068960;28;20049;-75
2023/08/12 09:56:10;;;;;;;23.27;9.95;;;19.60;99.90;;;;;;5053780;28;20057;-74
2023/08/12 09:58:37;;;;;;;14.63;6.82;;;19.50;99.90;;;;;;5053836;28;20052;-74
2023/08/12 10:01:07;;;;;;;13.32;5.93;;;19.50;99.90;;;;;;5053758;28;20448;-75
2023/08/12 10:03:35;;;;;;;10.88;4.10;;;19.50;99.90;;;;;;5036007;28;20139;-75
2023/08/12 10:06:04;;;;;;;8.60;3.78;;;19.50;99.90;;;;;;5053732;28;20049;-74
2023/08/12 10:08:30;;;;;;;8.55;3.38;;;19.50;99.90;;;;;;5053137;28;20079;-74
2023/08/12 10:10:56;;;;;;;6.40;2.72;;;19.40;99.90;;;;;;5036321;28;20045;-74
2023/08/12 10:13:22;;;;;;;9.17;2.83;;;19.40;99.90;;;;;;5052948;28;20401;-72
2023/08/12 10:15:49;;;;;;;7.22;3.03;;;19.40;99.90;;;;;;5054482;28;20134;-74
2023/08/12 10:18:15;;;;;;;7.80;3.13;;;19.50;99.90;;;;;;5053064;28;20049;-73
2023/08/12 10:20:44;;;;;;;6.82;2.88;;;19.50;99.90;;;;;;5057529;28;20055;-73
2023/08/12 10:23:15;;;;;;;8.75;3.42;;;19.60;99.90;;;;;;5055018;28;20049;-74
2023/08/12 10:25:43;;;;;;;8.80;4.20;;;19.60;99.90;;;;;;5057423;28;20045;-74
2023/08/12 10:28:10;;;;;;;10.98;4.07;;;19.60;99.90;;;;;;5038573;28;20049;-75
2023/08/12 10:30:36;;;;;;;;;;;19.70;99.90;;;;;;5055580;28;20065;-75
2023/08/12 10:33:03;;;;;;;7.90;4.10;;;19.70;99.90;;;;;;5055697;28;20359;-75
2023/08/12 10:35:58;;;;;;;8.80;4.05;;;19.70;99.90;;;;;;5054310;28;20105;-75
2023/08/12 10:38:26;;;;;;;6.03;2.85;;;19.80;99.90;;;;;;5049117;28;20436;-74
2023/08/12 10:40:52;;;;;;;4.22;1.50;;;19.80;99.90;;;;;;5054005;28;20107;-75
2023/08/12 10:43:18;;;;;;;3.45;1.52;;;19.60;99.90;;;;;;5052006;28;20083;-75
2023/08/12 10:45:49;;;;;;;6.10;1.77;;;19.60;99.90;;;;;;5052460;28;20053;-75
2023/08/12 10:48:22;;;;;;;4.65;1.60;;;19.60;99.90;;;;;;5054149;28;20136;-75
2023/08/12 10:50:56;;;;;;;4.38;1.50;;;19.70;99.90;;;;;;5056265;28;20049;-76
2023/08/12 10:53:35;;;;;;;6.25;1.67;;;19.70;99.90;;;;;;5056516;28;20393;-74
2023/08/12 10:56:04;;;;;;;3.55;1.50;;;19.70;99.90;;;;;;5056330;28;20053;-75
2023/08/12 10:58:47;;;;;;;3.30;1.40;;;19.80;99.90;;;;;;5055546;28;20045;-75
2023/08/12 11:01:19;;;;;;;3.53;1.45;;;19.90;99.90;;;;;;5056258;28;20060;-75
2023/08/12 11:03:45;;;;;;;4.57;1.83;;;20.00;99.90;;;;;;5056348;28;20132;-76
2023/08/12 11:06:12;;;;;;;3.60;1.55;;;20.10;99.90;;;;;;5056112;28;20483;-75
2023/08/12 11:08:47;;;;;;;;;;;20.00;99.90;;;;;;5056823;28;20056;-75
2023/08/12 11:11:21;;;;;;;4.30;1.52;;;20.10;99.90;;;;;;5039426;28;19944;-77
2023/08/12 11:13:58;;;;;;;4.80;1.38;;;20.10;99.90;;;;;;5055613;28;20057;-76
2023/08/12 11:16:37;;;;;;;3.85;1.17;;;20.30;99.90;;;;;;5055684;28;20049;-76
2023/08/12 11:19:04;;;;;;;3.90;1.42;;;20.40;99.90;;;;;;5055906;28;20064;-75
2023/08/12 11:21:30;;;;;;;3.45;1.40;;;20.50;99.90;;;;;;5056203;28;20133;-76
2023/08/12 11:23:55;;;;;;;4.30;1.73;;;20.80;99.90;;;;;;5055174;28;20522;-75
2023/08/12 11:26:24;;;;;;;6.00;2.10;;;21.00;99.90;;;;;;5057800;28;20185;-73
2023/08/12 11:28:50;;;;;;;5.82;2.30;;;21.10;99.90;;;;;;5057486;28;20045;-75
2023/08/12 11:31:17;;;;;;;5.47;2.00;;;21.40;99.90;;;;;;5057136;28;20053;-74
2023/08/12 11:33:43;;;;;;;8.30;2.60;;;21.80;99.90;;;;;;5057082;28;20280;-75
2023/08/12 11:36:09;;;;;;;6.38;3.20;;;21.90;99.90;;;;;;5057997;28;20055;-76
2023/08/12 11:38:35;;;;;;;6.30;2.73;;;22.10;99.90;;;;;;5057209;28;20541;-75
2023/08/12 11:41:02;;;;;;;7.40;3.13;;;22.10;99.90;;;;;;5056954;28;20087;-78
2023/08/12 11:43:30;;;;;;;6.10;3.17;;;22.10;99.90;;;;;;5055963;28;20080;-78
2023/08/12 11:45:56;;;;;;;7.43;2.72;;;22.10;99.90;;;;;;5054949;28;20094;-77
2023/08/12 11:48:23;;;;;;;7.07;2.72;;;22.00;99.90;;;;;;5055543;28;20049;-78
2023/08/12 11:50:50;;;;;;;7.97;2.75;;;22.10;99.90;;;;;;5056074;28;20053;-79
2023/08/12 11:53:16;;;;;;;6.40;2.20;;;22.10;99.90;;;;;;5056019;28;20389;-77
2023/08/12 11:55:42;;;;;;;4.63;1.65;;;22.10;99.90;;;;;;5040348;28;20049;-80
2023/08/12 11:58:09;;;;;;;2.50;0.90;;;22.00;99.90;;;;;;5060688;28;20105;-77
2023/08/12 12:00:35;;;;;;;4.53;1.33;;;21.80;99.90;;;;;;5057911;28;20060;-78
2023/08/12 12:03:00;;;;;;;3.67;1.20;;;21.70;99.90;;;;;;5064165;28;20045;-81
2023/08/12 12:05:30;;;;;;;5.07;1.70;;;21.60;99.90;;;;;;5061381;28;20051;-81
2023/08/12 12:07:55;;;;;;;4.97;2.20;;;21.50;99.90;;;;;;5059675;28;20045;-79
2023/08/12 12:10:29;;;;;;;5.63;2.17;;;21.60;99.90;;;;;;5057033;28;20132;-82
2023/08/12 12:12:56;;;;;;;10.15;3.25;;;21.80;99.90;;;;;;5055021;28;20052;-78
2023/08/12 12:15:22;;;;;;;9.02;2.90;;;21.60;99.90;;;;;;5055736;28;20067;-78
2023/08/12 12:17:50;;;;;;;5.32;2.08;;;21.40;99.90;;;;;;5038619;28;20049;-80
2023/08/12 12:20:16;;;;;;;7.55;2.00;;;21.40;99.90;;;;;;5059108;28;20049;-79
2023/08/12 12:22:46;;;;;;;6.93;1.88;;;21.50;99.90;;;;;;5058177;28;20049;-80
2023/08/12 12:25:14;;;;;;;9.85;2.10;;;21.70;99.90;;;;;;5055452;28;20044;-76
2023/08/12 12:27:41;;;;;;;7.20;1.55;;;21.70;99.90;;;;;;5055753;28;20389;-77
2023/08/12 12:30:10;;;;;;;;;;;21.80;99.90;;;;;;5038551;28;20064;-77